createdAt,value
2018-10-01T00:02:29.067Z,101451.84
2018-10-01T00:05:08.227Z,101455.28
2018-10-01T00:07:45.084Z,101454.34
2018-10-01T00:10:22.699Z,101455.59
2018-10-01T00:13:00.718Z,101461.67
2018-10-01T00:15:37.593Z,101460.78
2018-10-01T00:18:14.910Z,101465.17
2018-10-01T00:20:56.010Z,101462.58
2018-10-01T00:23:33.698Z,101463.45
2018-10-01T00:26:11.353Z,101466.09
2018-10-01T00:28:48.979Z,101470.51
2018-10-01T00:31:25.956Z,101464.84
2018-10-01T00:34:02.072Z,101463.09
2018-10-01T00:36:40.525Z,101472.25
2018-10-01T00:39:10.941Z,101458.16
2018-10-01T00:41:41.202Z,101467.84
2018-10-01T00:44:10.817Z,101467.38
2018-10-01T00:46:40.462Z,101466.48
2018-10-01T00:49:10.080Z,101467.38
2018-10-01T00:51:39.701Z,101470.49
2018-10-01T00:54:09.291Z,101473.57
2018-10-01T00:56:39.012Z,101467.37
2018-10-01T00:59:09.765Z,101466.86
2018-10-01T01:01:41.146Z,101467.61
2018-10-01T01:04:10.774Z,101467.49
2018-10-01T01:06:40.478Z,101472.63
2018-10-01T01:09:10.335Z,101471.63
2018-10-01T01:11:39.944Z,101473.27
2018-10-01T01:14:09.600Z,101471.84
2018-10-01T01:16:39.191Z,101472.19
2018-10-01T01:19:08.811Z,101468.61
2018-10-01T01:21:38.457Z,101460.63
2018-10-01T01:24:08.621Z,101450.84
2018-10-01T01:26:38.254Z,101460.02
2018-10-01T01:29:07.939Z,101469.95
2018-10-01T01:31:37.617Z,101469.42
2018-10-01T01:34:07.262Z,101473.72
2018-10-01T01:36:36.943Z,101476.73
2018-10-01T01:39:10.124Z,101472.30
2018-10-01T01:41:39.851Z,101472.23
2018-10-01T01:44:09.476Z,101474.78
2018-10-01T01:46:39.064Z,101475.12
2018-10-01T01:49:08.663Z,101472.86
2018-10-01T01:51:38.334Z,101475.01
2018-10-01T01:54:07.918Z,101473.66
2018-10-01T01:56:37.646Z,101468.36
2018-10-01T01:59:07.504Z,101476.13
2018-10-01T02:01:38.066Z,101469.08
2018-10-01T02:04:07.967Z,101468.03
2018-10-01T02:06:37.898Z,101466.61
2018-10-01T02:09:10.762Z,101474.90
2018-10-01T02:11:40.694Z,101469.16
2018-10-01T02:14:10.773Z,101466.10
2018-10-01T02:16:40.451Z,101460.84
2018-10-01T02:19:10.285Z,101462.18
2018-10-01T02:21:40.155Z,101460.47
2018-10-01T02:24:10.059Z,101464.47
2018-10-01T02:26:39.875Z,101463.23
2018-10-01T02:29:09.782Z,101461.13
2018-10-01T02:31:39.561Z,101464.64
2018-10-01T02:34:09.377Z,101464.28
2018-10-01T02:36:39.129Z,101462.97
2018-10-01T02:39:12.047Z,101465.55
2018-10-01T02:41:41.767Z,101459.41
2018-10-01T02:44:11.454Z,101456.77
2018-10-01T02:46:41.070Z,101455.45
2018-10-01T02:49:10.807Z,101458.10
2018-10-01T02:51:45.533Z,101463.34
2018-10-01T02:54:20.270Z,101463.73
2018-10-01T02:56:49.841Z,101460.58
2018-10-01T02:59:19.473Z,101459.20
2018-10-01T03:01:49.082Z,101455.09
2018-10-01T03:04:18.802Z,101461.63
2018-10-01T03:06:48.482Z,101462.39
2018-10-01T03:09:18.103Z,101459.26
2018-10-01T03:11:47.827Z,101456.13
2018-10-01T03:14:17.556Z,101456.48
2018-10-01T03:16:47.478Z,101462.12
2018-10-01T03:19:17.113Z,101456.41
2018-10-01T03:21:46.866Z,101453.80
2018-10-01T03:24:17.577Z,101448.09
2018-10-01T03:26:47.339Z,101461.36
2018-10-01T03:29:18.029Z,101457.08
2018-10-01T03:31:47.836Z,101455.38
2018-10-01T03:34:17.521Z,101458.47
2018-10-01T03:36:47.379Z,101456.72
2018-10-01T03:39:17.541Z,101455.45
2018-10-01T03:41:47.487Z,101458.55
2018-10-01T03:44:17.379Z,101461.67
2018-10-01T03:46:47.142Z,101466.42
2018-10-01T03:49:16.910Z,101465.01
2018-10-01T03:51:46.863Z,101469.73
2018-10-01T03:54:16.555Z,101471.43
2018-10-01T03:56:46.386Z,101470.05
2018-10-01T03:59:16.135Z,101472.58
2018-10-01T04:01:46.048Z,101470.76
2018-10-01T04:04:15.820Z,101470.31
2018-10-01T04:06:45.736Z,101470.24
2018-10-01T04:09:15.694Z,101473.73
2018-10-01T04:11:45.474Z,101475.47
2018-10-01T04:14:15.314Z,101476.81
2018-10-01T04:16:45.110Z,101465.52
2018-10-01T04:19:14.941Z,101471.27
2018-10-01T04:21:44.745Z,101474.40
2018-10-01T04:24:14.646Z,101474.41
2018-10-01T04:26:45.150Z,101480.94
2018-10-01T04:29:15.584Z,101491.80
2018-10-01T04:31:46.235Z,101487.40
2018-10-01T04:34:16.379Z,101486.88
2018-10-01T04:36:46.454Z,101493.77
2018-10-01T04:39:16.474Z,101508.50
2018-10-01T04:41:46.385Z,101501.45
2018-10-01T04:44:16.197Z,101501.33
2018-10-01T04:46:46.242Z,101499.02
2018-10-01T04:49:16.164Z,101508.94
2018-10-01T04:51:46.342Z,101501.36
2018-10-01T04:54:16.084Z,101499.05
2018-10-01T04:56:45.953Z,101511.20
2018-10-01T04:59:15.646Z,101512.89
2018-10-01T05:01:45.274Z,101505.39
2018-10-01T05:04:15.023Z,101512.31
2018-10-01T05:06:44.790Z,101506.61
2018-10-01T05:09:14.690Z,101513.09
2018-10-01T05:11:45.050Z,101517.83
2018-10-01T05:14:14.718Z,101522.37
2018-10-01T05:16:44.325Z,101517.39
2018-10-01T05:19:13.987Z,101518.56
2018-10-01T05:21:43.727Z,101522.42
2018-10-01T05:24:13.804Z,101520.20
2018-10-01T05:26:43.570Z,101527.17
2018-10-01T05:29:13.370Z,101535.09
2018-10-01T05:31:43.151Z,101536.45
2018-10-01T05:34:12.842Z,101539.55
2018-10-01T05:36:42.520Z,101540.12
2018-10-01T05:39:12.978Z,101561.70
2018-10-01T05:41:42.665Z,101560.91
2018-10-01T05:44:12.352Z,101559.74
2018-10-01T05:46:41.961Z,101566.81
2018-10-01T05:49:11.707Z,101560.41
2018-10-01T05:51:43.745Z,101561.31
2018-10-01T05:54:13.937Z,101552.61
2018-10-01T05:56:43.678Z,101547.94
2018-10-01T05:59:13.344Z,101555.00
2018-10-01T06:01:43.425Z,101564.72
2018-10-01T06:04:13.365Z,101562.70
2018-10-01T06:06:43.114Z,101550.11
2018-10-01T06:09:13.406Z,101550.54
2018-10-01T06:11:43.330Z,101560.09
2018-10-01T06:14:13.294Z,101562.58
2018-10-01T06:16:43.019Z,101567.33
2018-10-01T06:19:13.406Z,101566.90
2018-10-01T06:21:43.253Z,101569.56
2018-10-01T06:24:12.963Z,101570.95
2018-10-01T06:26:42.605Z,101575.48
2018-10-01T06:29:12.286Z,101584.88
2018-10-01T06:31:42.082Z,101592.17
2018-10-01T06:34:11.720Z,101593.46
2018-10-01T06:36:41.503Z,101597.67
2018-10-01T06:39:12.067Z,101605.14
2018-10-01T06:41:41.777Z,101595.86
2018-10-01T06:44:12.605Z,101590.81
2018-10-01T06:46:42.317Z,101585.39
2018-10-01T06:49:12.136Z,101592.30
2018-10-01T06:51:41.850Z,101602.36
2018-10-01T06:54:11.427Z,101609.50
2018-10-01T06:56:41.177Z,101601.50
2018-10-01T06:59:10.864Z,101599.53
2018-10-01T07:01:40.641Z,101601.38
2018-10-01T07:04:10.459Z,101608.06
2018-10-01T07:06:40.085Z,101618.68
2018-10-01T07:09:11.075Z,101623.63
2018-10-01T07:11:41.379Z,101631.20
2018-10-01T07:14:10.979Z,101628.74
2018-10-01T07:16:40.612Z,101637.66
2018-10-01T07:19:10.303Z,101636.38
2018-10-01T07:21:39.945Z,101634.61
2018-10-01T07:24:09.785Z,101639.73
2018-10-01T07:26:39.501Z,101646.66
2018-10-01T07:29:09.153Z,101641.83
2018-10-01T07:31:38.816Z,101636.58
2018-10-01T07:34:08.810Z,101649.72
2018-10-01T07:36:38.443Z,101655.49
2018-10-01T07:39:09.058Z,101656.02
2018-10-01T07:41:38.905Z,101661.45
2018-10-01T07:44:10.213Z,101664.13
2018-10-01T07:46:39.798Z,101664.63
2018-10-01T07:49:09.414Z,101666.34
2018-10-01T07:51:39.811Z,101665.88
2018-10-01T07:54:09.710Z,101658.42
2018-10-01T07:56:39.380Z,101665.91
2018-10-01T07:59:08.996Z,101665.59
2018-10-01T08:01:38.741Z,101678.41
2018-10-01T08:04:08.671Z,101671.98
2018-10-01T08:06:38.278Z,101674.84
2018-10-01T08:09:10.095Z,101682.88
2018-10-01T08:11:39.971Z,101679.05
2018-10-01T08:14:09.710Z,101685.23
2018-10-01T08:16:39.693Z,101693.98
2018-10-01T08:19:09.444Z,101693.09
2018-10-01T08:21:39.134Z,101703.74
2018-10-01T08:24:08.757Z,101712.70
2018-10-01T08:26:39.393Z,101715.02
2018-10-01T08:29:09.034Z,101712.64
2018-10-01T08:31:38.596Z,101733.77
2018-10-01T08:34:08.410Z,101733.53
2018-10-01T08:36:38.083Z,101735.56
2018-10-01T08:39:13.653Z,101732.02
2018-10-01T08:41:43.535Z,101737.06
2018-10-01T08:44:13.712Z,101741.16
2018-10-01T08:46:43.445Z,101740.02
2018-10-01T08:49:21.356Z,101739.70
2018-10-01T08:51:56.321Z,101733.65
2018-10-01T08:54:32.305Z,101734.33
2018-10-01T08:57:02.128Z,101747.52
2018-10-01T08:59:32.312Z,101758.38
2018-10-01T09:02:03.386Z,101769.66
2018-10-01T09:04:34.567Z,101778.16
2018-10-01T09:07:04.292Z,101788.67
2018-10-01T09:09:34.240Z,101784.76
2018-10-01T09:12:04.444Z,101772.27
2018-10-01T09:14:35.894Z,101769.54
2018-10-01T09:17:07.115Z,101760.33
2018-10-01T09:19:36.707Z,101767.52
2018-10-01T09:22:06.736Z,101770.20
2018-10-01T09:24:36.470Z,101777.23
2018-10-01T09:27:06.809Z,101789.98
2018-10-01T09:29:36.598Z,101803.94
2018-10-01T09:32:07.245Z,101780.26
2018-10-01T09:34:36.882Z,101792.41
2018-10-01T09:37:06.768Z,101789.34
2018-10-01T09:39:36.720Z,101788.06
2018-10-01T09:42:07.809Z,101796.03
2018-10-01T09:44:37.503Z,101790.41
2018-10-01T09:47:07.215Z,101786.85
2018-10-01T09:49:37.005Z,101789.37
2018-10-01T09:52:06.946Z,101782.75
2018-10-01T09:54:36.684Z,101783.29
2018-10-01T09:57:06.265Z,101787.03
2018-10-01T09:59:35.941Z,101794.02
2018-10-01T10:02:06.595Z,101800.13
2018-10-01T10:04:36.307Z,101813.19
2018-10-01T10:07:06.590Z,101821.60
2018-10-01T10:09:36.469Z,101813.09
2018-10-01T10:12:07.084Z,101797.98
2018-10-01T10:14:36.897Z,101796.14
2018-10-01T10:17:07.095Z,101806.70
2018-10-01T10:19:36.723Z,101805.70
2018-10-01T10:22:06.730Z,101793.03
2018-10-01T10:24:37.121Z,101798.59
2018-10-01T10:27:06.857Z,101811.75
2018-10-01T10:29:36.381Z,101805.02
2018-10-01T10:32:06.967Z,101798.77
2018-10-01T10:34:36.710Z,101806.74
2018-10-01T10:37:07.060Z,101803.58
2018-10-01T10:39:37.262Z,101808.01
2018-10-01T10:42:07.021Z,101822.08
2018-10-01T10:44:36.683Z,101803.22
2018-10-01T10:47:06.286Z,101811.09
2018-10-01T10:49:35.898Z,101815.55
2018-10-01T10:52:06.640Z,101803.78
2018-10-01T10:54:36.558Z,101810.42
2018-10-01T10:57:07.365Z,101803.48
2018-10-01T10:59:37.002Z,101810.09
2018-10-01T11:02:07.123Z,101811.50
2018-10-01T11:04:36.737Z,101808.05
2018-10-01T11:07:06.793Z,101809.50
2018-10-01T11:09:36.516Z,101821.18
2018-10-01T11:12:06.764Z,101814.70
2018-10-01T11:14:36.459Z,101825.37
2018-10-01T11:17:06.678Z,101822.88
2018-10-01T11:19:36.305Z,101818.52
2018-10-01T11:22:06.776Z,101840.89
2018-10-01T11:24:36.401Z,101820.10
2018-10-01T11:27:06.928Z,101849.94
2018-10-01T11:29:36.665Z,101849.45
2018-10-01T11:32:07.826Z,101845.41
2018-10-01T11:34:37.574Z,101854.41
2018-10-01T11:37:07.168Z,101855.98
2018-10-01T11:39:36.819Z,101845.83
2018-10-01T11:42:07.025Z,101834.50
2018-10-01T11:44:36.830Z,101835.91
2018-10-01T11:47:06.538Z,101835.35
2018-10-01T11:49:36.100Z,101831.73
2018-10-01T11:52:06.774Z,101838.10
2018-10-01T11:54:36.328Z,101838.61
2018-10-01T11:57:06.510Z,101842.55
2018-10-01T11:59:36.201Z,101823.17
2018-10-01T12:02:06.632Z,101836.28
2018-10-01T12:04:36.227Z,101839.36
2018-10-01T12:07:06.739Z,101846.50
2018-10-01T12:09:36.380Z,101839.47
2018-10-01T12:12:06.650Z,101838.59
2018-10-01T12:14:36.307Z,101835.46
2018-10-01T12:17:06.855Z,101850.34
2018-10-01T12:19:36.489Z,101839.68
2018-10-01T12:22:06.835Z,101830.52
2018-10-01T12:24:37.793Z,101827.88
2018-10-01T12:27:07.905Z,101819.71
2018-10-01T12:29:38.460Z,101814.48
2018-10-01T12:32:08.076Z,101816.52
2018-10-01T12:34:37.650Z,101827.57
2018-10-01T12:37:07.669Z,101825.64
2018-10-01T12:39:37.288Z,101853.70
2018-10-01T12:42:06.847Z,101875.69
2018-10-01T12:44:36.443Z,101870.30
2018-10-01T12:47:06.730Z,101878.38
2018-10-01T12:49:36.381Z,101878.98
2018-10-01T12:52:06.486Z,101877.91
2018-10-01T12:54:36.107Z,101885.70
2018-10-01T12:57:06.999Z,101877.79
2018-10-01T12:59:36.652Z,101879.52
2018-10-01T13:02:06.906Z,101921.17
2018-10-01T13:04:36.457Z,101906.80
2018-10-01T13:07:06.292Z,101922.19
2018-10-01T13:09:35.954Z,101912.95
2018-10-01T13:12:06.663Z,101898.00
2018-10-01T13:14:36.268Z,101901.09
2018-10-01T13:17:07.082Z,101902.19
2018-10-01T13:19:36.736Z,101876.17
2018-10-01T13:22:07.041Z,101883.83
2018-10-01T13:24:36.725Z,101880.56
2018-10-01T13:27:07.410Z,101871.97
2018-10-01T13:29:37.026Z,101879.94
2018-10-01T13:32:06.830Z,101886.03
2018-10-01T13:34:36.444Z,101868.31
2018-10-01T13:37:06.356Z,101880.83
2018-10-01T13:39:36.026Z,101894.61
2018-10-01T13:42:06.469Z,101906.22
2018-10-01T13:44:36.146Z,101923.05
2018-10-01T13:47:07.527Z,101924.36
2018-10-01T13:49:37.150Z,101925.70
2018-10-01T13:52:07.052Z,101933.83
2018-10-01T13:54:36.643Z,101929.63
2018-10-01T13:57:06.300Z,101940.88
2018-10-01T13:59:35.959Z,101939.08
2018-10-01T14:02:06.716Z,101937.38
2018-10-01T14:04:36.209Z,101924.77
2018-10-01T14:07:06.540Z,101923.61
2018-10-01T14:09:36.291Z,101926.97
2018-10-01T14:12:06.761Z,101911.22
2018-10-01T14:14:36.374Z,101917.38
2018-10-01T14:17:06.754Z,101916.05
2018-10-01T14:19:36.485Z,101914.73
2018-10-01T14:22:07.272Z,101920.86
2018-10-01T14:24:36.900Z,101920.30
2018-10-01T14:27:06.773Z,101924.05
2018-10-01T14:29:36.652Z,101908.91
2018-10-01T14:32:06.647Z,101917.08
2018-10-01T14:34:36.306Z,101932.28
2018-10-01T14:37:06.796Z,101918.61
2018-10-01T14:39:36.349Z,101922.78
2018-10-01T14:42:06.407Z,101922.88
2018-10-01T14:44:36.226Z,101933.71
2018-10-01T14:47:07.094Z,101940.10
2018-10-01T14:49:36.828Z,101958.69
2018-10-01T14:52:06.783Z,101976.95
2018-10-01T14:54:36.435Z,101958.55
2018-10-01T14:57:06.713Z,101941.09
2018-10-01T14:59:36.556Z,101931.39
2018-10-01T15:02:06.807Z,101937.62
2018-10-01T15:04:36.590Z,101937.97
2018-10-01T15:07:06.564Z,101953.70
2018-10-01T15:09:36.237Z,101976.63
2018-10-01T15:12:09.694Z,101999.52
2018-10-01T15:14:39.484Z,101982.22
2018-10-01T15:17:09.053Z,101952.36
2018-10-01T15:19:38.743Z,101942.67
2018-10-01T15:22:08.397Z,101942.72
2018-10-01T15:24:48.654Z,101940.77
2018-10-01T15:27:18.253Z,101937.32
2018-10-01T15:29:47.960Z,101934.11
2018-10-01T15:32:17.500Z,101938.42
2018-10-01T15:34:47.799Z,101945.82
2018-10-01T15:37:18.458Z,101945.66
2018-10-01T15:39:48.120Z,101942.80
2018-10-01T15:42:17.836Z,101939.84
2018-10-01T15:44:48.248Z,101939.57
2018-10-01T15:47:17.907Z,101936.46
2018-10-01T15:49:47.536Z,101936.31
2018-10-01T15:52:17.136Z,101939.02
2018-10-01T15:54:47.076Z,101968.67
2018-10-01T15:57:16.827Z,101970.91
2018-10-01T15:59:46.550Z,101975.13
2018-10-01T16:02:16.764Z,101974.70
2018-10-01T16:04:54.341Z,101967.84
2018-10-01T16:07:24.018Z,101960.97
2018-10-01T16:09:53.951Z,101968.42
2018-10-01T16:12:23.994Z,101963.91
2018-10-01T16:14:53.684Z,101972.06
2018-10-01T16:17:23.406Z,101967.70
2018-10-01T16:19:53.929Z,101984.52
2018-10-01T16:22:23.733Z,101984.27
2018-10-01T16:24:53.471Z,101996.33
2018-10-01T16:27:23.423Z,101998.23
2018-10-01T16:29:53.478Z,102001.86
2018-10-01T16:32:23.031Z,102000.27
2018-10-01T16:34:52.755Z,102006.13
2018-10-01T16:37:22.658Z,101990.59
2018-10-01T16:39:52.281Z,101987.82
2018-10-01T16:42:22.068Z,101991.14
2018-10-01T16:44:51.663Z,101992.20
2018-10-01T16:47:21.323Z,102003.77
2018-10-01T16:49:50.902Z,102007.57
2018-10-01T16:52:21.459Z,102010.95
2018-10-01T16:54:51.534Z,102006.48
2018-10-01T16:57:21.267Z,102010.73
2018-10-01T16:59:50.926Z,102008.34
2018-10-01T17:02:20.462Z,102017.32
2018-10-01T17:04:50.193Z,102014.59
2018-10-01T17:07:23.411Z,102015.47
2018-10-01T17:09:52.993Z,102021.67
2018-10-01T17:12:22.824Z,102027.41
2018-10-01T17:14:52.448Z,102032.14
2018-10-01T17:17:22.122Z,102034.59
2018-10-01T17:19:51.965Z,102038.23
2018-10-01T17:22:22.408Z,102045.41
2018-10-01T17:24:52.002Z,102050.39
2018-10-01T17:27:21.826Z,102056.73
2018-10-01T17:29:52.088Z,102053.43
2018-10-01T17:32:21.910Z,102051.44
2018-10-01T17:34:51.627Z,102052.05
2018-10-01T17:37:21.181Z,102058.01
2018-10-01T17:39:50.799Z,102062.17
2018-10-01T17:42:20.580Z,102061.09
2018-10-01T17:44:50.206Z,102059.66
2018-10-01T17:47:19.871Z,102055.23
2018-10-01T17:49:49.629Z,102059.09
2018-10-01T17:52:19.289Z,102068.69
2018-10-01T17:54:48.923Z,102078.03
2018-10-01T17:57:18.757Z,102085.71
2018-10-01T17:59:48.403Z,102085.95
2018-10-01T18:02:18.489Z,102098.66
2018-10-01T18:04:48.058Z,102103.14
2018-10-01T18:07:17.669Z,102103.77
2018-10-01T18:09:47.354Z,102102.86
2018-10-01T18:12:17.193Z,102099.42
2018-10-01T18:14:46.728Z,102099.30
2018-10-01T18:17:16.339Z,102097.80
2018-10-01T18:19:46.173Z,102103.31
2018-10-01T18:22:15.763Z,102105.64
2018-10-01T18:24:45.329Z,102104.06
2018-10-01T18:27:16.009Z,102088.28
2018-10-01T18:29:45.722Z,102106.20
2018-10-01T18:32:15.430Z,102110.33
2018-10-01T18:34:44.911Z,102097.44
2018-10-01T18:37:14.592Z,102095.92
2018-10-01T18:39:44.399Z,102091.84
2018-10-01T18:42:14.052Z,102098.22
2018-10-01T18:44:44.072Z,102096.19
2018-10-01T18:47:13.763Z,102099.08
2018-10-01T18:49:43.816Z,102101.97
2018-10-01T18:52:13.394Z,102101.77
2018-10-01T18:54:42.994Z,102100.80
2018-10-01T18:57:12.861Z,102108.05
2018-10-01T18:59:43.649Z,102113.14
2018-10-01T19:02:13.308Z,102113.14
2018-10-01T19:04:43.167Z,102115.30
2018-10-01T19:07:12.836Z,102120.52
2018-10-01T19:09:42.535Z,102134.52
2018-10-01T19:12:12.222Z,102136.84
2018-10-01T19:14:42.223Z,102134.91
2018-10-01T19:17:12.395Z,102147.02
2018-10-01T19:19:42.130Z,102133.78
2018-10-01T19:22:12.266Z,102132.69
2018-10-01T19:24:42.240Z,102120.96
2018-10-01T19:27:13.879Z,102110.12
2018-10-01T19:29:43.486Z,102106.66
2018-10-01T19:32:13.141Z,102114.98
2018-10-01T19:34:42.915Z,102117.59
2018-10-01T19:37:12.597Z,102115.80
2018-10-01T19:39:42.248Z,102116.66
2018-10-01T19:42:12.041Z,102110.94
2018-10-01T19:44:41.789Z,102119.57
2018-10-01T19:47:11.572Z,102123.40
2018-10-01T19:49:41.145Z,102119.79
2018-10-01T19:52:11.467Z,102119.55
2018-10-01T19:54:41.027Z,102108.50
2018-10-01T19:57:11.245Z,102118.80
2018-10-01T19:59:40.874Z,102107.32
2018-10-01T20:02:10.469Z,102109.36
2018-10-01T20:04:40.050Z,102112.33
2018-10-01T20:07:09.883Z,102120.95
2018-10-01T20:09:43.480Z,102130.59
2018-10-01T20:12:14.829Z,102138.73
2018-10-01T20:14:45.408Z,102138.09
2018-10-01T20:17:15.038Z,102138.19
2018-10-01T20:19:44.668Z,102145.78
2018-10-01T20:22:14.882Z,102153.80
2018-10-01T20:24:44.502Z,102155.25
2018-10-01T20:27:14.342Z,102155.34
2018-10-01T20:29:44.023Z,102150.60
2018-10-01T20:32:13.669Z,102134.45
2018-10-01T20:34:43.462Z,102123.55
2018-10-01T20:37:13.087Z,102114.41
2018-10-01T20:39:42.868Z,102100.49
2018-10-01T20:42:12.474Z,102094.45
2018-10-01T20:44:43.402Z,102084.03
2018-10-01T20:47:13.487Z,102092.30
2018-10-01T20:49:43.161Z,102089.17
2018-10-01T20:52:12.883Z,102087.80
2018-10-01T20:54:42.404Z,102084.74
2018-10-01T20:57:11.996Z,102082.95
2018-10-01T20:59:41.568Z,102084.25
2018-10-01T21:02:11.198Z,102089.97
2018-10-01T21:04:41.020Z,102100.44
2018-10-01T21:07:10.602Z,102110.48
2018-10-01T21:09:40.450Z,102111.80
2018-10-01T21:12:10.106Z,102107.45
2018-10-01T21:14:39.741Z,102109.58
2018-10-01T21:17:12.638Z,102099.84
2018-10-01T21:19:45.265Z,102103.88
2018-10-01T21:22:14.904Z,102097.05
2018-10-01T21:24:44.561Z,102095.97
2018-10-01T21:27:14.249Z,102098.77
2018-10-01T21:29:43.777Z,102091.96
2018-10-01T21:32:13.382Z,102089.56
2018-10-01T21:34:43.054Z,102072.50
2018-10-01T21:37:12.837Z,102088.64
2018-10-01T21:40:09.798Z,102083.63
2018-10-01T21:42:39.706Z,102091.59
2018-10-01T21:45:10.973Z,102089.77
2018-10-01T21:47:40.558Z,102083.97
2018-10-01T21:50:10.273Z,102082.14
2018-10-01T21:52:39.972Z,102089.45
2018-10-01T21:55:09.961Z,102099.88
2018-10-01T21:57:39.580Z,102100.30
2018-10-01T22:00:11.073Z,102096.42
2018-10-01T22:02:40.751Z,102092.94
2018-10-01T22:05:10.458Z,102089.45
2018-10-01T22:07:40.118Z,102085.89
2018-10-01T22:10:09.832Z,102085.80
2018-10-01T22:12:39.449Z,102087.10
2018-10-01T22:15:09.177Z,102083.64
2018-10-01T22:17:38.858Z,102087.63
2018-10-01T22:20:08.827Z,102086.25
2018-10-01T22:22:38.406Z,102080.58
2018-10-01T22:25:08.051Z,102086.22
2018-10-01T22:27:37.613Z,102079.86
2018-10-01T22:30:08.702Z,102080.84
2018-10-01T22:32:38.285Z,102083.19
2018-10-01T22:35:09.107Z,102077.25
2018-10-01T22:37:38.782Z,102069.94
2018-10-01T22:40:08.638Z,102082.49
2018-10-01T22:42:38.349Z,102076.72
2018-10-01T22:45:07.984Z,102071.12
2018-10-01T22:47:37.635Z,102069.45
2018-10-01T22:50:07.517Z,102063.83
2018-10-01T22:52:37.122Z,102061.28
2018-10-01T22:55:07.762Z,102062.31
2018-10-01T22:57:37.427Z,102066.35
2018-10-01T23:00:07.426Z,102060.41
2018-10-01T23:02:37.128Z,102067.95
2018-10-01T23:05:07.078Z,102066.38
2018-10-01T23:07:36.752Z,102062.16
2018-10-01T23:10:06.538Z,102059.69
2018-10-01T23:12:36.157Z,102042.44
2018-10-01T23:15:06.429Z,102040.40
2018-10-01T23:17:36.230Z,102039.60
2018-10-01T23:20:06.990Z,102032.65
2018-10-01T23:22:36.820Z,102035.80
2018-10-01T23:25:06.624Z,102030.64
2018-10-01T23:27:36.208Z,102026.78
2018-10-01T23:30:06.736Z,102028.09
2018-10-01T23:32:36.318Z,102029.02
2018-10-01T23:35:06.059Z,102026.01
2018-10-01T23:37:35.589Z,102028.25
2018-10-01T23:40:05.616Z,102024.39
2018-10-01T23:42:35.311Z,102020.55
2018-10-01T23:45:05.276Z,102018.43
2018-10-01T23:47:34.859Z,102012.34
2018-10-01T23:50:04.640Z,102012.78
2018-10-01T23:52:34.369Z,102021.86
2018-10-01T23:55:04.064Z,102019.73
2018-10-01T23:57:40.884Z,102023.65
